Time;durP1;ratioP1;P1;durP2;ratioP2;P2;SDS_P1;SDS_P2;PMS_P1;PMS_P2;Temp;Humidity;BMP_temperature;BMP_pressure;BME280_temperature;BME280_humidity;BME280_pressure;Samples;Min_cycle;Max_cycle;Signal;HPM_P1;HPM_P2
2022/03/31 00:01:17;;;;;;;16.15;10.38;;;;;;;;;;8148642;28;20496;-58
2022/03/31 00:05:17;;;;;;;16.08;11.68;;;;;;;;;;8147132;29;20031;-58
2022/03/31 00:09:18;;;;;;;17.42;11.60;;;;;;;;;;8145872;29;20039;-58
2022/03/31 00:13:19;;;;;;;14.27;10.73;;;;;;;;;;8147469;28;20078;-58
2022/03/31 00:17:19;;;;;;;15.40;10.60;;;;;;;;;;8147643;28;20473;-58
2022/03/31 00:21:19;;;;;;;14.80;10.45;;;;;;;;;;8147174;28;20035;-58
2022/03/31 00:25:20;;;;;;;14.90;10.85;;;;;;;;;;8147987;28;20091;-58
2022/03/31 00:29:20;;;;;;;15.80;10.67;;;;;;;;;;8154793;29;20492;-57
2022/03/31 00:33:20;;;;;;;14.20;10.00;;;;;;;;;;8151857;28;20031;-58
2022/03/31 00:37:20;;;;;;;14.70;10.20;;;;;;;;;;8153417;28;20113;-58
2022/03/31 00:41:22;;;;;;;16.98;11.05;;;;;;;;;;8151676;28;20035;-57
2022/03/31 00:45:24;;;;;;;16.67;11.82;;;;;;;;;;8155255;28;20046;-58
2022/03/31 00:49:25;;;;;;;17.27;12.65;;;;;;;;;;8153283;28;20028;-58
2022/03/31 00:53:25;;;;;;;19.75;12.18;;;;;;;;;;8153061;28;20030;-58
2022/03/31 00:57:25;;;;;;;16.10;11.68;;;;;;;;;;8155114;28;20087;-58
2022/03/31 01:01:26;;;;;;;20.42;13.75;;;;;;;;;;8152052;28;20050;-58
2022/03/31 01:05:26;;;;;;;18.45;12.07;;;;;;;;;;8151149;29;20039;-57
2022/03/31 01:09:27;;;;;;;16.27;11.18;;;;;;;;;;8149618;28;20142;-58
2022/03/31 01:13:27;;;;;;;17.05;11.52;;;;;;;;;;8152194;28;20019;-57
2022/03/31 01:17:27;;;;;;;16.10;11.48;;;;;;;;;;8151272;28;20077;-58
2022/03/31 01:21:27;;;;;;;18.30;12.63;;;;;;;;;;8152653;28;20027;-58
2022/03/31 01:25:28;;;;;;;18.17;12.52;;;;;;;;;;8151044;28;20042;-57
2022/03/31 01:29:28;;;;;;;20.02;12.77;;;;;;;;;;8153082;29;20578;-58
2022/03/31 01:33:29;;;;;;;19.00;13.05;;;;;;;;;;8151717;28;20142;-58
2022/03/31 01:37:29;;;;;;;17.88;12.43;;;;;;;;;;8149956;28;20036;-58
2022/03/31 01:41:29;;;;;;;17.05;11.88;;;;;;;;;;8151566;29;20035;-58
2022/03/31 01:45:30;;;;;;;17.50;12.32;;;;;;;;;;8153010;28;20043;-58
2022/03/31 01:49:31;;;;;;;18.35;12.45;;;;;;;;;;8150396;28;20440;-58
2022/03/31 01:53:35;;;;;;;16.92;11.70;;;;;;;;;;8152320;28;20031;-58
2022/03/31 01:57:35;;;;;;;16.98;12.38;;;;;;;;;;8150174;28;20171;-58
2022/03/31 02:01:36;;;;;;;18.25;12.68;;;;;;;;;;8150068;28;20071;-58
2022/03/31 02:05:36;;;;;;;18.73;12.88;;;;;;;;;;8151716;28;20123;-58
2022/03/31 02:09:36;;;;;;;17.45;12.50;;;;;;;;;;8148880;28;20043;-58
2022/03/31 02:13:36;;;;;;;20.75;13.43;;;;;;;;;;8151567;29;20030;-58
2022/03/31 02:17:37;;;;;;;16.98;11.90;;;;;;;;;;8151811;28;20524;-58
2022/03/31 02:21:37;;;;;;;19.98;13.38;;;;;;;;;;8151265;28;20031;-58
2022/03/31 02:25:38;;;;;;;21.88;14.85;;;;;;;;;;8151277;28;20035;-58
2022/03/31 02:29:38;;;;;;;17.67;13.20;;;;;;;;;;8149680;29;20034;-58
2022/03/31 02:33:38;;;;;;;20.08;13.93;;;;;;;;;;8151026;28;20036;-58
2022/03/31 02:37:39;;;;;;;20.27;13.93;;;;;;;;;;8150145;29;20890;-58
2022/03/31 02:41:39;;;;;;;18.85;12.63;;;;;;;;;;8149842;28;21171;-58
2022/03/31 02:45:39;;;;;;;21.97;14.07;;;;;;;;;;8150537;28;20768;-58
2022/03/31 02:49:40;;;;;;;19.67;13.70;;;;;;;;;;8147960;28;20027;-58
2022/03/31 02:58:01;;;;;;;20.95;14.32;;;;;;;;;;8151056;29;20217;-57
2022/03/31 03:02:01;;;;;;;21.13;14.40;;;;;;;;;;8151418;28;20200;-57
2022/03/31 03:06:02;;;;;;;23.17;14.95;;;;;;;;;;8149042;28;20069;-57
2022/03/31 03:10:03;;;;;;;22.67;15.02;;;;;;;;;;8148990;28;20023;-58
2022/03/31 03:14:03;;;;;;;22.38;14.82;;;;;;;;;;8150363;29;20046;-58
2022/03/31 03:18:03;;;;;;;22.43;14.10;;;;;;;;;;8148874;28;20130;-58
2022/03/31 03:22:04;;;;;;;20.40;13.23;;;;;;;;;;8148182;28;21185;-58
2022/03/31 03:26:04;;;;;;;20.45;13.35;;;;;;;;;;8148281;28;20027;-58
2022/03/31 03:30:06;;;;;;;23.52;13.77;;;;;;;;;;8149410;28;20748;-57
2022/03/31 03:34:06;;;;;;;21.15;14.10;;;;;;;;;;8148952;29;20543;-58
2022/03/31 03:38:07;;;;;;;23.55;14.15;;;;;;;;;;8147906;29;20019;-57
2022/03/31 03:42:07;;;;;;;21.35;13.73;;;;;;;;;;8147934;29;20578;-58
2022/03/31 03:46:07;;;;;;;19.90;13.17;;;;;;;;;;8147030;28;20579;-58
2022/03/31 03:50:09;;;;;;;20.17;12.97;;;;;;;;;;8149645;28;20290;-58
2022/03/31 03:54:09;;;;;;;18.35;11.95;;;;;;;;;;8148959;29;20278;-57
2022/03/31 03:58:09;;;;;;;16.25;10.77;;;;;;;;;;8147318;28;20033;-58
2022/03/31 04:02:09;;;;;;;20.27;12.82;;;;;;;;;;8152337;28;20218;-58
2022/03/31 04:06:11;;;;;;;19.75;12.85;;;;;;;;;;8155994;29;20035;-58
2022/03/31 04:10:11;;;;;;;19.50;12.77;;;;;;;;;;8154307;29;20030;-58
2022/03/31 04:14:12;;;;;;;19.50;12.70;;;;;;;;;;8156072;28;20035;-57
2022/03/31 04:18:12;;;;;;;21.95;13.30;;;;;;;;;;8154427;28;20043;-57
2022/03/31 04:22:12;;;;;;;17.23;12.93;;;;;;;;;;8152381;28;20024;-58
2022/03/31 04:26:12;;;;;;;18.92;12.05;;;;;;;;;;8153330;28;20844;-57
2022/03/31 04:30:13;;;;;;;17.00;11.45;;;;;;;;;;8152964;28;20027;-58
2022/03/31 04:34:15;;;;;;;19.10;12.02;;;;;;;;;;8153990;29;20809;-58
2022/03/31 04:38:15;;;;;;;18.40;12.05;;;;;;;;;;8152361;29;21098;-57
2022/03/31 04:42:15;;;;;;;19.80;12.25;;;;;;;;;;8153324;29;20043;-58
2022/03/31 04:46:16;;;;;;;17.87;12.23;;;;;;;;;;8153197;28;20429;-58
2022/03/31 04:50:16;;;;;;;23.50;12.65;;;;;;;;;;8152602;28;20853;-58
2022/03/31 04:54:16;;;;;;;19.10;12.25;;;;;;;;;;8147631;28;20828;-58
2022/03/31 04:58:16;;;;;;;19.77;13.15;;;;;;;;;;8152005;28;20046;-58
2022/03/31 05:02:18;;;;;;;20.23;13.15;;;;;;;;;;8154154;28;20191;-58
2022/03/31 05:06:18;;;;;;;21.15;13.45;;;;;;;;;;8154963;29;20105;-57
2022/03/31 05:10:19;;;;;;;22.75;13.68;;;;;;;;;;8150044;28;20137;-57
2022/03/31 05:14:19;;;;;;;22.63;13.38;;;;;;;;;;8153791;29;20397;-58
2022/03/31 05:18:20;;;;;;;22.73;13.50;;;;;;;;;;8153334;28;20717;-58
2022/03/31 05:22:20;;;;;;;19.27;12.57;;;;;;;;;;8153215;28;20270;-57
2022/03/31 05:26:20;;;;;;;23.27;13.93;;;;;;;;;;8151744;28;20076;-60
2022/03/31 05:30:21;;;;;;;20.77;13.07;;;;;;;;;;8151101;28;20595;-58
2022/03/31 05:34:21;;;;;;;20.45;13.63;;;;;;;;;;8152647;29;20533;-58
2022/03/31 05:38:22;;;;;;;24.17;14.07;;;;;;;;;;8150443;28;20031;-58
2022/03/31 05:42:22;;;;;;;22.73;13.95;;;;;;;;;;8150123;28;20051;-58
2022/03/31 05:46:22;;;;;;;21.13;13.25;;;;;;;;;;8152748;28;20088;-57
2022/03/31 05:50:23;;;;;;;18.98;12.73;;;;;;;;;;8148301;28;20090;-58
2022/03/31 05:54:23;;;;;;;21.93;12.77;;;;;;;;;;8152660;29;20134;-58
2022/03/31 05:58:23;;;;;;;22.38;13.48;;;;;;;;;;8150752;28;20284;-58
2022/03/31 06:02:23;;;;;;;20.73;12.43;;;;;;;;;;8150159;28;20043;-58
2022/03/31 06:06:23;;;;;;;23.67;14.30;;;;;;;;;;8150095;28;20294;-58
2022/03/31 06:10:24;;;;;;;20.20;13.43;;;;;;;;;;8151617;28;20086;-57
2022/03/31 06:14:24;;;;;;;23.33;13.90;;;;;;;;;;8152382;29;20032;-58
2022/03/31 06:18:25;;;;;;;21.60;13.40;;;;;;;;;;8150374;28;20042;-59
2022/03/31 06:22:25;;;;;;;22.10;13.48;;;;;;;;;;8149420;28;20035;-59
2022/03/31 06:26:26;;;;;;;21.23;13.43;;;;;;;;;;8149514;28;20027;-58
2022/03/31 06:30:26;;;;;;;26.17;14.52;;;;;;;;;;8146918;28;20281;-58
2022/03/31 06:34:26;;;;;;;21.10;13.05;;;;;;;;;;8150050;28;20016;-58
2022/03/31 06:38:26;;;;;;;24.42;13.80;;;;;;;;;;8149828;28;20035;-58
2022/03/31 06:42:26;;;;;;;19.80;12.70;;;;;;;;;;8150268;29;20043;-58
2022/03/31 06:46:27;;;;;;;20.90;12.25;;;;;;;;;;8149729;28;20039;-58
2022/03/31 06:50:32;;;;;;;21.20;12.90;;;;;;;;;;8149306;28;20367;-58
2022/03/31 06:54:32;;;;;;;19.05;12.35;;;;;;;;;;8149881;29;20345;-58
2022/03/31 06:58:32;;;;;;;18.80;12.82;;;;;;;;;;8151640;28;20027;-59
2022/03/31 07:02:33;;;;;;;23.00;13.40;;;;;;;;;;8149280;28;20372;-58
2022/03/31 07:06:34;;;;;;;19.45;12.60;;;;;;;;;;8148513;29;20042;-58
2022/03/31 07:10:34;;;;;;;20.90;13.65;;;;;;;;;;8150507;28;20037;-60
2022/03/31 07:14:37;;;;;;;20.23;12.60;;;;;;;;;;8148914;29;20098;-58
2022/03/31 07:18:38;;;;;;;20.88;13.43;;;;;;;;;;8147798;28;20263;-59
2022/03/31 07:22:45;;;;;;;20.13;13.05;;;;;;;;;;8146777;29;20122;-58
2022/03/31 07:26:45;;;;;;;20.45;13.32;;;;;;;;;;8149420;28;20481;-58
2022/03/31 07:30:46;;;;;;;19.80;13.50;;;;;;;;;;8147527;28;20130;-58
2022/03/31 07:34:46;;;;;;;19.73;12.80;;;;;;;;;;8149179;29;20038;-59
2022/03/31 07:38:46;;;;;;;19.90;12.75;;;;;;;;;;8147677;29;20038;-59
2022/03/31 07:42:46;;;;;;;19.97;12.73;;;;;;;;;;8147743;29;20117;-59
2022/03/31 07:46:47;;;;;;;20.83;13.33;;;;;;;;;;8147789;28;20433;-59
2022/03/31 07:50:47;;;;;;;22.23;13.55;;;;;;;;;;8145615;28;20847;-59
2022/03/31 07:54:47;;;;;;;19.55;12.85;;;;;;;;;;8147589;28;20045;-58
2022/03/31 07:58:48;;;;;;;19.60;12.73;;;;;;;;;;8147404;29;20027;-57
2022/03/31 08:02:49;;;;;;;20.33;13.23;;;;;;;;;;8146499;28;20035;-58
2022/03/31 08:06:50;;;;;;;20.88;13.65;;;;;;;;;;8149117;29;20341;-59
2022/03/31 08:10:50;;;;;;;21.95;14.30;;;;;;;;;;8145323;29;20026;-59
2022/03/31 08:14:51;;;;;;;19.80;13.90;;;;;;;;;;8149539;29;20043;-58
2022/03/31 08:18:51;;;;;;;19.55;12.90;;;;;;;;;;8149303;28;20043;-58
2022/03/31 08:22:51;;;;;;;22.23;13.52;;;;;;;;;;8146510;28;20027;-58
2022/03/31 08:26:52;;;;;;;18.83;13.32;;;;;;;;;;8147219;29;20031;-59
2022/03/31 08:30:52;;;;;;;19.10;13.02;;;;;;;;;;8147534;28;20039;-59
2022/03/31 08:34:52;;;;;;;18.75;12.68;;;;;;;;;;8149068;28;20084;-58
2022/03/31 08:38:52;;;;;;;20.08;13.13;;;;;;;;;;8145467;29;20611;-58
2022/03/31 08:42:53;;;;;;;24.98;14.98;;;;;;;;;;8145906;29;20054;-60
2022/03/31 08:46:53;;;;;;;21.65;14.27;;;;;;;;;;8149637;28;20921;-58
2022/03/31 08:50:54;;;;;;;18.92;13.27;;;;;;;;;;8150622;28;20023;-58
2022/03/31 08:54:54;;;;;;;19.42;13.35;;;;;;;;;;8153854;29;20573;-58
2022/03/31 08:58:54;;;;;;;23.60;14.13;;;;;;;;;;8154055;29;20031;-59
2022/03/31 09:02:59;;;;;;;21.35;14.48;;;;;;;;;;8152590;28;20309;-59
2022/03/31 09:07:01;;;;;;;20.20;14.10;;;;;;;;;;8151265;29;20027;-59
2022/03/31 09:11:03;;;;;;;19.45;13.20;;;;;;;;;;8155182;29;20028;-59
2022/03/31 09:15:10;;;;;;;17.42;12.98;;;;;;;;;;8152551;28;20041;-58
2022/03/31 09:19:12;;;;;;;19.55;13.15;;;;;;;;;;8151501;28;20023;-59
2022/03/31 09:23:19;;;;;;;20.67;13.48;;;;;;;;;;8152300;28;20027;-59
2022/03/31 09:27:25;;;;;;;18.42;13.18;;;;;;;;;;8150632;29;20039;-58
2022/03/31 09:31:25;;;;;;;19.58;13.80;;;;;;;;;;8150122;28;20110;-58
2022/03/31 09:35:25;;;;;;;19.83;13.90;;;;;;;;;;8152666;29;20023;-59
2022/03/31 09:39:26;;;;;;;19.35;13.52;;;;;;;;;;8152513;28;20740;-58
2022/03/31 09:43:26;;;;;;;18.83;13.23;;;;;;;;;;8152083;29;20039;-59
2022/03/31 09:47:28;;;;;;;18.65;12.90;;;;;;;;;;8151431;28;20509;-59
2022/03/31 09:51:28;;;;;;;19.15;12.82;;;;;;;;;;8147793;28;20027;-59
2022/03/31 09:55:28;;;;;;;18.98;13.38;;;;;;;;;;8148654;29;20440;-59
2022/03/31 09:59:30;;;;;;;18.88;13.85;;;;;;;;;;8148761;28;20031;-59
2022/03/31 10:03:30;;;;;;;20.08;13.32;;;;;;;;;;8150252;28;20046;-59
2022/03/31 10:07:31;;;;;;;20.67;13.63;;;;;;;;;;8150422;28;20625;-59
2022/03/31 10:11:41;;;;;;;18.45;13.07;;;;;;;;;;8146204;28;20027;-59
2022/03/31 10:15:42;;;;;;;20.30;13.30;;;;;;;;;;8149821;28;20043;-58
2022/03/31 10:19:44;;;;;;;18.52;13.30;;;;;;;;;;8149768;28;20023;-59
2022/03/31 10:28:09;;;;;;;21.67;13.70;;;;;;;;;;8151071;29;20066;-58
2022/03/31 10:32:16;;;;;;;15.70;12.23;;;;;;;;;;8147761;28;20894;-59
2022/03/31 10:36:16;;;;;;;18.23;13.43;;;;;;;;;;8149770;28;20911;-59
2022/03/31 10:40:27;;;;;;;19.52;13.48;;;;;;;;;;8146882;29;20027;-59
2022/03/31 10:44:27;;;;;;;19.55;12.38;;;;;;;;;;8148906;28;20043;-58
2022/03/31 10:48:28;;;;;;;19.77;13.98;;;;;;;;;;8145370;28;20817;-59
2022/03/31 10:52:29;;;;;;;18.27;13.00;;;;;;;;;;8146964;29;20038;-59
2022/03/31 10:56:30;;;;;;;18.80;13.82;;;;;;;;;;8145895;29;20035;-59
2022/03/31 11:00:30;;;;;;;18.52;12.98;;;;;;;;;;8146795;28;20036;-59
2022/03/31 11:04:41;;;;;;;20.07;13.50;;;;;;;;;;8144590;29;20031;-58
2022/03/31 11:08:43;;;;;;;18.25;12.25;;;;;;;;;;8144795;28;20302;-59
2022/03/31 11:12:43;;;;;;;17.95;11.98;;;;;;;;;;8146365;28;20023;-59
2022/03/31 11:16:44;;;;;;;18.35;12.65;;;;;;;;;;8146743;28;20090;-58
2022/03/31 11:20:44;;;;;;;20.27;13.23;;;;;;;;;;8144545;28;20031;-58
2022/03/31 11:24:44;;;;;;;18.58;13.45;;;;;;;;;;8146336;28;20740;-58
2022/03/31 11:28:47;;;;;;;16.45;12.40;;;;;;;;;;8144283;29;20471;-58
2022/03/31 11:32:51;;;;;;;17.88;12.68;;;;;;;;;;8145646;28;20068;-59
2022/03/31 11:36:51;;;;;;;15.68;11.95;;;;;;;;;;8144797;29;20031;-58
2022/03/31 11:40:52;;;;;;;20.70;13.90;;;;;;;;;;8141951;29;20038;-58
2022/03/31 11:44:52;;;;;;;18.85;13.35;;;;;;;;;;8144038;28;20058;-59
2022/03/31 11:48:54;;;;;;;19.13;13.10;;;;;;;;;;8142792;28;20046;-58
2022/03/31 11:52:55;;;;;;;20.55;13.13;;;;;;;;;;8146247;28;20086;-58
2022/03/31 11:57:04;;;;;;;17.33;13.07;;;;;;;;;;8143862;29;20031;-58
2022/03/31 12:01:05;;;;;;;18.85;13.43;;;;;;;;;;8142945;28;20035;-58
2022/03/31 12:05:11;;;;;;;18.60;13.25;;;;;;;;;;8144946;28;20032;-58
2022/03/31 12:09:12;;;;;;;19.95;13.55;;;;;;;;;;8145087;29;20381;-59
2022/03/31 12:13:12;;;;;;;17.77;13.00;;;;;;;;;;8142630;28;20105;-58
2022/03/31 12:17:17;;;;;;;18.88;14.20;;;;;;;;;;8147016;28;21070;-58
2022/03/31 12:21:17;;;;;;;26.10;15.27;;;;;;;;;;8146445;28;20181;-58
2022/03/31 12:25:31;;;;;;;21.70;14.85;;;;;;;;;;8149111;28;20051;-58
2022/03/31 12:29:32;;;;;;;23.57;15.23;;;;;;;;;;8152971;29;20366;-58
2022/03/31 12:33:36;;;;;;;21.08;14.13;;;;;;;;;;8151353;28;20392;-59
2022/03/31 12:37:37;;;;;;;20.90;14.45;;;;;;;;;;8150096;29;20114;-58
2022/03/31 12:41:38;;;;;;;18.90;13.55;;;;;;;;;;8148534;29;20040;-59
2022/03/31 12:45:39;;;;;;;19.55;14.00;;;;;;;;;;8150519;28;20615;-58
2022/03/31 12:49:40;;;;;;;22.33;15.15;;;;;;;;;;8149733;28;20032;-58
2022/03/31 12:53:42;;;;;;;20.02;14.10;;;;;;;;;;8149070;29;20019;-58
2022/03/31 12:57:42;;;;;;;21.02;14.93;;;;;;;;;;8146981;28;20016;-58
2022/03/31 13:01:53;;;;;;;20.73;14.20;;;;;;;;;;8148930;28;20159;-58
2022/03/31 13:05:55;;;;;;;21.00;14.93;;;;;;;;;;8151030;28;20023;-58
2022/03/31 13:09:56;;;;;;;20.85;13.32;;;;;;;;;;8148799;29;20034;-58
2022/03/31 13:13:56;;;;;;;19.45;14.13;;;;;;;;;;8149243;29;20812;-58
2022/03/31 13:17:57;;;;;;;23.08;13.43;;;;;;;;;;8146286;28;20062;-61
2022/03/31 13:21:57;;;;;;;23.85;14.43;;;;;;;;;;8145223;28;20494;-57
2022/03/31 13:25:58;;;;;;;20.40;13.73;;;;;;;;;;8146425;28;20039;-58
2022/03/31 13:29:58;;;;;;;22.80;14.15;;;;;;;;;;8149877;29;20515;-58
2022/03/31 13:33:59;;;;;;;23.60;16.33;;;;;;;;;;8146705;28;20034;-58
2022/03/31 13:37:59;;;;;;;23.20;14.65;;;;;;;;;;8149934;29;20027;-58
2022/03/31 13:41:59;;;;;;;19.45;13.68;;;;;;;;;;8145878;29;20357;-58
2022/03/31 13:46:00;;;;;;;22.70;14.55;;;;;;;;;;8149140;28;20047;-57
2022/03/31 13:50:01;;;;;;;20.35;14.93;;;;;;;;;;8148648;28;20038;-58
2022/03/31 13:54:06;;;;;;;19.20;14.57;;;;;;;;;;8149646;28;20042;-58
2022/03/31 14:02:25;;;;;;;22.08;15.30;;;;;;;;;;8145834;28;20238;-58
2022/03/31 14:06:25;;;;;;;20.50;14.68;;;;;;;;;;8148219;28;20743;-57
2022/03/31 14:10:25;;;;;;;21.90;15.25;;;;;;;;;;8147795;28;20040;-58
2022/03/31 14:14:27;;;;;;;20.93;13.87;;;;;;;;;;8141991;28;20121;-58
2022/03/31 14:18:28;;;;;;;20.67;13.70;;;;;;;;;;8144732;28;20306;-58
2022/03/31 14:22:28;;;;;;;23.48;15.15;;;;;;;;;;8145681;28;20118;-58
2022/03/31 14:26:28;;;;;;;22.80;15.15;;;;;;;;;;8143220;28;20870;-58
2022/03/31 14:30:29;;;;;;;22.73;15.02;;;;;;;;;;8144144;28;20344;-58
2022/03/31 14:34:29;;;;;;;22.10;15.63;;;;;;;;;;8144484;28;20027;-58
2022/03/31 14:38:30;;;;;;;23.40;15.93;;;;;;;;;;8145789;28;20333;-58
2022/03/31 14:42:30;;;;;;;24.38;15.75;;;;;;;;;;8142898;28;20601;-58
2022/03/31 14:46:32;;;;;;;19.70;14.63;;;;;;;;;;8143586;28;20043;-58
2022/03/31 14:50:33;;;;;;;21.63;15.43;;;;;;;;;;8143232;28;20380;-58
2022/03/31 14:54:33;;;;;;;20.40;14.38;;;;;;;;;;8143097;28;20019;-58
2022/03/31 14:58:33;;;;;;;20.73;14.43;;;;;;;;;;8141048;28;20795;-58
2022/03/31 15:02:33;;;;;;;19.92;14.65;;;;;;;;;;8142768;28;20154;-58
2022/03/31 15:06:34;;;;;;;20.45;14.75;;;;;;;;;;8143707;29;20031;-58
2022/03/31 15:14:52;;;;;;;19.35;14.07;;;;;;;;;;8143026;28;20745;-58
2022/03/31 15:18:53;;;;;;;23.30;15.20;;;;;;;;;;8140478;28;20039;-58
2022/03/31 15:22:53;;;;;;;21.00;14.35;;;;;;;;;;8143965;28;20126;-58
2022/03/31 15:26:53;;;;;;;21.37;15.03;;;;;;;;;;8143081;28;20083;-58
2022/03/31 15:30:54;;;;;;;21.47;15.10;;;;;;;;;;8141642;28;20307;-58
2022/03/31 15:34:54;;;;;;;19.15;13.93;;;;;;;;;;8143737;28;20334;-58
2022/03/31 15:38:54;;;;;;;18.88;13.95;;;;;;;;;;8143060;28;20030;-58
2022/03/31 15:42:54;;;;;;;19.67;14.27;;;;;;;;;;8140299;28;20465;-58
2022/03/31 15:46:54;;;;;;;16.27;12.90;;;;;;;;;;8142659;28;20047;-58
2022/03/31 15:50:55;;;;;;;18.55;13.20;;;;;;;;;;8140001;28;20772;-58
2022/03/31 15:54:55;;;;;;;21.35;14.15;;;;;;;;;;8140812;28;20448;-58
2022/03/31 15:58:55;;;;;;;17.90;12.38;;;;;;;;;;8141264;28;20405;-58
2022/03/31 16:02:56;;;;;;;17.23;12.68;;;;;;;;;;8144914;28;20047;-58
2022/03/31 16:06:56;;;;;;;20.17;13.50;;;;;;;;;;8144174;29;20031;-58
2022/03/31 16:10:56;;;;;;;17.48;12.40;;;;;;;;;;8145537;28;20035;-58
2022/03/31 16:14:56;;;;;;;17.85;13.32;;;;;;;;;;8143658;28;20027;-58
2022/03/31 16:18:56;;;;;;;19.52;13.25;;;;;;;;;;8144575;28;20054;-57
2022/03/31 16:23:41;;;;;;;17.35;12.35;;;;;;;;;;8146387;29;20027;-59
2022/03/31 16:27:17;;;;;;;16.98;11.80;;;;;;;;;;8143529;29;20047;-57
2022/03/31 16:31:18;;;;;;;16.03;12.07;;;;;;;;;;8143214;28;20035;-58
2022/03/31 16:35:18;;;;;;;17.15;12.15;;;;;;;;;;8143583;28;20882;-58
2022/03/31 16:39:19;;;;;;;16.60;11.63;;;;;;;;;;8146193;29;20027;-58
2022/03/31 16:43:19;;;;;;;19.17;12.95;;;;;;;;;;8146245;29;20471;-58
2022/03/31 16:47:19;;;;;;;18.33;11.97;;;;;;;;;;8144681;28;20576;-58
2022/03/31 16:51:20;;;;;;;14.80;11.32;;;;;;;;;;8143462;28;20290;-57
2022/03/31 16:55:20;;;;;;;16.27;12.57;;;;;;;;;;8144092;29;20599;-57
2022/03/31 16:59:21;;;;;;;18.58;12.65;;;;;;;;;;8143327;28;20816;-58
2022/03/31 17:03:21;;;;;;;16.73;12.05;;;;;;;;;;8144567;28;20519;-57
2022/03/31 17:07:21;;;;;;;20.23;13.80;;;;;;;;;;8145291;28;20105;-57
2022/03/31 17:11:22;;;;;;;19.35;12.77;;;;;;;;;;8150940;28;20603;-58
2022/03/31 17:15:27;;;;;;;18.10;13.45;;;;;;;;;;8149951;28;20035;-57
2022/03/31 17:19:27;;;;;;;16.90;12.27;;;;;;;;;;8147608;28;20094;-58
2022/03/31 17:23:27;;;;;;;18.23;12.98;;;;;;;;;;8149813;28;20383;-58
2022/03/31 17:27:27;;;;;;;17.88;12.82;;;;;;;;;;8149300;29;20204;-57
2022/03/31 17:31:27;;;;;;;15.80;12.15;;;;;;;;;;8150510;28;20828;-58
2022/03/31 17:35:28;;;;;;;16.80;12.53;;;;;;;;;;8145154;29;20070;-59
2022/03/31 17:39:32;;;;;;;16.60;12.30;;;;;;;;;;8144656;28;20271;-58
2022/03/31 17:43:32;;;;;;;16.05;11.45;;;;;;;;;;8144083;28;20031;-58
2022/03/31 17:47:32;;;;;;;15.52;11.10;;;;;;;;;;8145222;28;20058;-57
2022/03/31 17:51:32;;;;;;;16.25;12.07;;;;;;;;;;8144124;28;20031;-58
2022/03/31 17:55:33;;;;;;;14.63;11.40;;;;;;;;;;8145114;28;20106;-57
2022/03/31 17:59:34;;;;;;;18.45;13.25;;;;;;;;;;8145460;28;20269;-58
2022/03/31 18:03:34;;;;;;;17.00;12.25;;;;;;;;;;8144021;28;20075;-57
2022/03/31 18:07:34;;;;;;;19.05;13.63;;;;;;;;;;8144380;28;20031;-57
2022/03/31 18:11:36;;;;;;;20.73;14.27;;;;;;;;;;8145122;29;20429;-58
2022/03/31 18:15:38;;;;;;;19.75;13.27;;;;;;;;;;8142201;28;20819;-57
2022/03/31 18:19:39;;;;;;;18.98;13.90;;;;;;;;;;8143398;28;20214;-58
2022/03/31 18:23:41;;;;;;;19.05;13.40;;;;;;;;;;8144334;28;20058;-58
2022/03/31 18:27:41;;;;;;;18.75;13.10;;;;;;;;;;8141657;28;20024;-57
2022/03/31 18:36:23;;;;;;;18.70;12.27;;;;;;;;;;8080902;29;20283;-58
2022/03/31 18:40:23;;;;;;;19.27;13.15;;;;;;;;;;8109327;28;20313;-57
2022/03/31 18:44:24;;;;;;;18.25;13.27;;;;;;;;;;8145240;29;20477;-58
2022/03/31 18:48:25;;;;;;;19.65;13.23;;;;;;;;;;8142121;28;20907;-58
2022/03/31 18:52:25;;;;;;;18.42;13.45;;;;;;;;;;8143787;28;20393;-57
2022/03/31 18:56:25;;;;;;;19.38;12.85;;;;;;;;;;8145323;28;20054;-57
2022/03/31 19:00:26;;;;;;;19.73;12.57;;;;;;;;;;8139995;28;20046;-57
2022/03/31 19:04:26;;;;;;;17.92;12.35;;;;;;;;;;8144136;29;20023;-57
2022/03/31 19:08:26;;;;;;;16.42;11.43;;;;;;;;;;8141563;28;20035;-58
2022/03/31 19:12:27;;;;;;;17.88;11.65;;;;;;;;;;8139050;28;20594;-58
2022/03/31 19:16:29;;;;;;;14.90;11.57;;;;;;;;;;8141615;28;20118;-57
2022/03/31 19:20:30;;;;;;;16.83;11.80;;;;;;;;;;8142210;28;20114;-58
2022/03/31 19:24:30;;;;;;;15.13;11.80;;;;;;;;;;8142193;28;20084;-57
2022/03/31 19:28:30;;;;;;;16.80;12.77;;;;;;;;;;8142871;28;20282;-58
2022/03/31 19:32:31;;;;;;;18.77;12.73;;;;;;;;;;8142178;28;20232;-58
2022/03/31 19:36:31;;;;;;;17.63;11.98;;;;;;;;;;8140622;29;20031;-58
2022/03/31 19:40:32;;;;;;;18.92;13.13;;;;;;;;;;8143579;28;20031;-57
2022/03/31 19:44:32;;;;;;;18.40;12.90;;;;;;;;;;8142387;28;20243;-57
2022/03/31 19:48:32;;;;;;;16.35;11.18;;;;;;;;;;8141471;28;20059;-58
2022/03/31 19:52:32;;;;;;;16.83;12.40;;;;;;;;;;8140955;29;20175;-58
2022/03/31 19:56:36;;;;;;;17.00;11.82;;;;;;;;;;8140423;28;20058;-57
2022/03/31 20:00:37;;;;;;;17.10;12.73;;;;;;;;;;8139019;28;20907;-58
2022/03/31 20:04:38;;;;;;;15.35;11.23;;;;;;;;;;8140430;28;20031;-57
2022/03/31 20:08:39;;;;;;;15.80;11.65;;;;;;;;;;8140821;28;20547;-57
2022/03/31 20:12:39;;;;;;;17.13;12.10;;;;;;;;;;8141980;28;21048;-57
2022/03/31 20:16:40;;;;;;;15.02;11.00;;;;;;;;;;8138831;28;20110;-57
2022/03/31 20:20:41;;;;;;;13.45;10.30;;;;;;;;;;8136013;28;20357;-57
2022/03/31 20:24:41;;;;;;;14.32;11.15;;;;;;;;;;8140213;28;20430;-57
2022/03/31 20:28:42;;;;;;;14.30;10.88;;;;;;;;;;8141157;28;20035;-57
2022/03/31 20:32:42;;;;;;;13.23;9.65;;;;;;;;;;8140728;28;20090;-57
2022/03/31 20:36:44;;;;;;;13.27;10.52;;;;;;;;;;8140506;28;20027;-57
2022/03/31 20:40:46;;;;;;;12.95;10.32;;;;;;;;;;8137831;28;20151;-57
2022/03/31 20:44:46;;;;;;;13.38;10.35;;;;;;;;;;8147265;28;20103;-58
2022/03/31 20:48:46;;;;;;;16.08;11.40;;;;;;;;;;8144295;28;20408;-57
2022/03/31 20:52:46;;;;;;;13.35;10.68;;;;;;;;;;8150253;28;20019;-57
2022/03/31 20:56:47;;;;;;;14.70;11.10;;;;;;;;;;8149892;28;21030;-58
2022/03/31 21:00:47;;;;;;;13.48;10.00;;;;;;;;;;8149086;28;20066;-58
2022/03/31 21:04:48;;;;;;;13.35;10.10;;;;;;;;;;8149304;29;20123;-57
2022/03/31 21:08:48;;;;;;;12.68;9.48;;;;;;;;;;8147962;29;20027;-57
2022/03/31 21:12:48;;;;;;;12.45;9.68;;;;;;;;;;8147401;28;20023;-57
2022/03/31 21:16:48;;;;;;;14.33;9.83;;;;;;;;;;8150237;28;20039;-58
2022/03/31 21:20:48;;;;;;;11.65;9.25;;;;;;;;;;8149100;28;20326;-57
2022/03/31 21:24:49;;;;;;;13.40;9.18;;;;;;;;;;8148044;28;20072;-57
2022/03/31 21:28:49;;;;;;;12.93;9.52;;;;;;;;;;8148300;28;20019;-58
2022/03/31 21:32:49;;;;;;;11.27;9.10;;;;;;;;;;8147803;28;20036;-57
2022/03/31 21:36:50;;;;;;;11.63;9.00;;;;;;;;;;8148144;29;20916;-57
2022/03/31 21:40:51;;;;;;;11.02;8.50;;;;;;;;;;8146158;28;20471;-58
2022/03/31 21:44:52;;;;;;;11.15;8.98;;;;;;;;;;8147835;29;20032;-57
2022/03/31 21:48:52;;;;;;;11.88;8.75;;;;;;;;;;8145627;28;20127;-57
2022/03/31 21:52:53;;;;;;;10.63;8.48;;;;;;;;;;8147829;28;20019;-57
2022/03/31 21:56:53;;;;;;;10.65;8.75;;;;;;;;;;8147601;28;20027;-57
2022/03/31 22:00:59;;;;;;;10.77;8.47;;;;;;;;;;8148750;28;20035;-58
2022/03/31 22:04:59;;;;;;;8.63;7.53;;;;;;;;;;8149354;28;20258;-57
2022/03/31 22:13:19;;;;;;;10.48;8.65;;;;;;;;;;8149990;28;20515;-57
2022/03/31 22:17:20;;;;;;;9.95;8.25;;;;;;;;;;8146746;28;20207;-57
2022/03/31 22:21:20;;;;;;;9.95;8.27;;;;;;;;;;8146899;28;20556;-57
2022/03/31 22:25:21;;;;;;;11.77;8.88;;;;;;;;;;8147703;28;20051;-57
2022/03/31 22:29:21;;;;;;;10.65;9.05;;;;;;;;;;8146705;28;20027;-57
2022/03/31 22:33:21;;;;;;;9.60;8.07;;;;;;;;;;8148662;28;20049;-57
2022/03/31 22:37:21;;;;;;;9.90;8.40;;;;;;;;;;8146933;28;20031;-57
2022/03/31 22:41:22;;;;;;;9.45;8.00;;;;;;;;;;8145659;28;20037;-57
2022/03/31 22:45:22;;;;;;;9.13;8.15;;;;;;;;;;8146607;28;20868;-57
2022/03/31 22:49:23;;;;;;;11.27;8.77;;;;;;;;;;8147268;28;20031;-59
2022/03/31 22:53:23;;;;;;;9.40;8.40;;;;;;;;;;8146826;29;20586;-57
2022/03/31 22:57:24;;;;;;;11.57;9.07;;;;;;;;;;8147100;28;20458;-57
2022/03/31 23:01:25;;;;;;;10.25;8.00;;;;;;;;;;8144548;28;20048;-57
2022/03/31 23:05:25;;;;;;;9.60;8.27;;;;;;;;;;8145241;28;20110;-57
2022/03/31 23:09:25;;;;;;;11.55;8.80;;;;;;;;;;8146487;28;20119;-57
2022/03/31 23:13:26;;;;;;;12.00;9.30;;;;;;;;;;8145321;28;20020;-57
2022/03/31 23:17:27;;;;;;;11.85;9.68;;;;;;;;;;8148347;28;20832;-57
2022/03/31 23:21:27;;;;;;;11.73;9.63;;;;;;;;;;8145194;28;20141;-57
2022/03/31 23:25:27;;;;;;;11.45;9.20;;;;;;;;;;8146128;28;20035;-58
2022/03/31 23:29:27;;;;;;;10.93;8.80;;;;;;;;;;8144229;29;20027;-57
2022/03/31 23:33:28;;;;;;;11.32;9.73;;;;;;;;;;8145764;28;20042;-57
2022/03/31 23:37:28;;;;;;;13.60;9.77;;;;;;;;;;8144029;28;20065;-58
2022/03/31 23:41:28;;;;;;;11.57;9.55;;;;;;;;;;8145761;28;20679;-57
2022/03/31 23:45:28;;;;;;;11.80;9.55;;;;;;;;;;8144479;28;20035;-57
2022/03/31 23:49:31;;;;;;;12.98;9.48;;;;;;;;;;8145003;28;20631;-57